createdAt,value
2022-08-05T00:02:40.599Z,19.50
2022-08-05T00:06:05.166Z,19.53
2022-08-05T00:08:56.907Z,19.53
2022-08-05T00:12:03.554Z,19.54
2022-08-05T00:15:54.063Z,19.53
2022-08-05T00:18:22.494Z,19.53
2022-08-05T00:21:26.299Z,19.50
2022-08-05T00:24:33.623Z,19.53
2022-08-05T00:27:39.524Z,19.52
2022-08-05T00:30:46.397Z,19.52
2022-08-05T00:34:56.731Z,19.55
2022-08-05T00:37:13.060Z,19.66
2022-08-05T00:40:09.509Z,19.52
2022-08-05T00:43:16.286Z,19.41
2022-08-05T00:46:36.936Z,19.38
2022-08-05T00:49:28.186Z,19.32
2022-08-05T00:52:35.130Z,19.27
2022-08-05T00:55:43.860Z,19.24
2022-08-05T00:58:49.721Z,19.25
2022-08-05T01:01:56.471Z,19.27
2022-08-05T01:05:02.292Z,19.30
2022-08-05T01:08:40.334Z,19.35
2022-08-05T01:11:37.657Z,19.32
2022-08-05T01:14:56.293Z,19.30
2022-08-05T01:18:10.777Z,19.30
2022-08-05T01:21:44.535Z,19.26
2022-08-05T01:25:13.590Z,19.28
2022-08-05T01:28:52.158Z,19.27
2022-08-05T01:32:04.310Z,19.25
2022-08-05T01:35:13.555Z,19.27
2022-08-05T01:38:19.742Z,19.27
2022-08-05T01:41:27.939Z,19.29
2022-08-05T01:44:35.224Z,19.23
2022-08-05T01:47:43.262Z,19.29
2022-08-05T01:50:53.944Z,19.28
2022-08-05T01:54:02.166Z,19.17
2022-08-05T01:58:13.083Z,19.20
2022-08-05T02:00:18.157Z,19.13
2022-08-05T02:03:52.080Z,19.12
2022-08-05T02:06:58.135Z,19.25
2022-08-05T02:09:56.973Z,19.15
2022-08-05T02:13:16.128Z,19.14
2022-08-05T02:16:27.642Z,19.09
2022-08-05T02:19:47.652Z,19.08
2022-08-05T02:22:51.313Z,19.17
2022-08-05T02:25:59.221Z,19.27
2022-08-05T02:29:07.491Z,19.15
2022-08-05T02:32:23.838Z,19.18
2022-08-05T02:35:27.948Z,19.22
2022-08-05T02:38:32.540Z,19.23
2022-08-05T02:41:57.648Z,19.30
2022-08-05T02:44:47.747Z,19.28
2022-08-05T02:48:11.486Z,19.26
2022-08-05T02:51:02.904Z,19.31
2022-08-05T02:54:08.540Z,19.38
2022-08-05T02:58:10.664Z,19.37
2022-08-05T03:00:22.053Z,19.43
2022-08-05T03:04:03.043Z,19.52
2022-08-05T03:06:55.283Z,19.58
2022-08-05T03:09:51.979Z,19.73
2022-08-05T03:16:06.716Z,20.13
2022-08-05T03:19:20.290Z,20.24
2022-08-05T03:22:32.196Z,20.26
2022-08-05T03:25:34.054Z,20.32
2022-08-05T03:28:37.525Z,20.34
2022-08-05T03:31:55.846Z,20.40
2022-08-05T03:34:51.228Z,20.42
2022-08-05T03:37:58.064Z,20.50
2022-08-05T03:41:08.356Z,20.57
2022-08-05T03:44:11.869Z,20.57
2022-08-05T03:47:17.968Z,20.63
2022-08-05T03:50:24.590Z,20.68
2022-08-05T03:55:53.613Z,20.70
2022-08-05T03:56:54.891Z,20.87
2022-08-05T04:00:10.694Z,21.04
2022-08-05T04:03:28.583Z,21.26
2022-08-05T04:06:26.375Z,21.53
2022-08-05T04:09:32.908Z,21.84
2022-08-05T04:15:52.877Z,22.32
2022-08-05T04:18:54.917Z,22.59
2022-08-05T04:22:08.602Z,22.84
2022-08-05T04:25:08.017Z,23.07
2022-08-05T04:28:17.235Z,23.31
2022-08-05T04:31:22.478Z,23.58
2022-08-05T04:34:32.829Z,23.78
2022-08-05T04:37:26.879Z,24.02
2022-08-05T04:40:23.431Z,24.13
2022-08-05T04:43:28.430Z,24.27
2022-08-05T04:46:33.730Z,24.47
2022-08-05T04:50:02.759Z,24.58
2022-08-05T04:52:46.049Z,24.56
2022-08-05T04:56:14.531Z,24.63
2022-08-05T04:58:59.528Z,24.63
2022-08-05T05:02:37.508Z,24.64
2022-08-05T05:05:17.022Z,24.66
2022-08-05T05:08:30.090Z,24.80
2022-08-05T05:11:41.446Z,24.88
2022-08-05T05:14:37.907Z,24.90
2022-08-05T05:17:56.300Z,24.97
2022-08-05T05:20:54.234Z,25.03
2022-08-05T05:24:03.668Z,25.09
2022-08-05T05:27:08.054Z,25.05
2022-08-05T05:30:28.667Z,25.02
2022-08-05T05:33:23.377Z,25.11
2022-08-05T05:36:30.194Z,25.22
2022-08-05T05:39:36.168Z,25.36
2022-08-05T05:42:42.541Z,25.43
2022-08-05T05:45:48.418Z,25.58
2022-08-05T05:48:50.197Z,25.71
2022-08-05T05:51:56.742Z,25.85
2022-08-05T05:55:07.344Z,26.00
2022-08-05T05:58:11.029Z,26.05
2022-08-05T06:01:12.682Z,25.97
2022-08-05T06:04:01.602Z,25.76
2022-08-05T06:06:53.087Z,25.67
2022-08-05T06:09:59.935Z,25.68
2022-08-05T06:12:56.500Z,25.71
2022-08-05T06:16:28.927Z,25.72
2022-08-05T06:19:10.139Z,25.57
2022-08-05T06:22:18.968Z,25.60
2022-08-05T06:26:12.835Z,25.77
2022-08-05T06:28:32.702Z,25.99
2022-08-05T06:31:38.665Z,26.24
2022-08-05T06:34:46.162Z,26.21
2022-08-05T06:37:57.418Z,26.20
2022-08-05T06:41:01.281Z,26.14
2022-08-05T06:44:08.539Z,26.03
2022-08-05T06:47:29.970Z,25.90
2022-08-05T06:50:23.069Z,25.79
2022-08-05T06:53:29.381Z,25.69
2022-08-05T06:56:36.907Z,25.57
2022-08-05T06:59:48.567Z,25.65
2022-08-05T07:02:57.357Z,25.89
2022-08-05T07:06:06.223Z,26.06
2022-08-05T07:09:03.733Z,26.37
2022-08-05T07:12:10.103Z,26.59
2022-08-05T07:16:00.832Z,26.68
2022-08-05T07:18:47.809Z,26.67
2022-08-05T07:22:00.546Z,26.73
2022-08-05T07:24:56.280Z,26.90
2022-08-05T07:28:09.613Z,27.08
2022-08-05T07:31:09.995Z,27.16
2022-08-05T07:34:21.160Z,27.37
2022-08-05T07:37:24.504Z,27.54
2022-08-05T07:40:33.377Z,27.64
2022-08-05T07:43:39.207Z,27.75
2022-08-05T07:46:49.214Z,27.52
2022-08-05T07:49:54.331Z,27.52
2022-08-05T07:53:01.282Z,27.39
2022-08-05T07:57:02.476Z,27.26
2022-08-05T07:59:15.470Z,27.46
2022-08-05T08:02:19.949Z,27.73
2022-08-05T08:05:26.340Z,27.95
2022-08-05T08:08:31.874Z,27.99
2022-08-05T08:11:47.193Z,27.99
2022-08-05T08:14:46.635Z,28.00
2022-08-05T08:17:52.911Z,27.88
2022-08-05T08:21:02.179Z,27.75
2022-08-05T08:24:08.504Z,27.69
2022-08-05T08:27:13.745Z,27.67
2022-08-05T08:30:29.919Z,27.71
2022-08-05T08:33:27.626Z,27.86
2022-08-05T08:36:49.027Z,28.00
2022-08-05T08:39:49.320Z,27.98
2022-08-05T08:42:52.333Z,27.88
2022-08-05T08:45:56.674Z,27.95
2022-08-05T08:50:03.866Z,28.03
2022-08-05T08:52:18.825Z,28.08
2022-08-05T08:56:02.810Z,27.97
2022-08-05T08:58:43.574Z,28.22
2022-08-05T09:01:31.198Z,28.46
2022-08-05T09:04:36.936Z,28.62
2022-08-05T09:07:57.040Z,28.73
2022-08-05T09:10:51.329Z,28.71
2022-08-05T09:14:09.915Z,28.74
2022-08-05T09:17:08.143Z,28.90
2022-08-05T09:20:36.413Z,29.05
2022-08-05T09:23:43.352Z,29.29
2022-08-05T09:26:36.750Z,29.29
2022-08-05T09:29:57.054Z,29.13
2022-08-05T09:33:04.887Z,29.14
2022-08-05T09:36:18.829Z,29.14
2022-08-05T09:39:45.156Z,29.23
2022-08-05T09:42:38.330Z,29.31
2022-08-05T09:46:06.791Z,29.34
2022-08-05T09:49:07.773Z,29.29
2022-08-05T09:52:07.398Z,29.32
2022-08-05T09:55:57.261Z,29.24
2022-08-05T09:58:32.386Z,29.39
2022-08-05T10:01:40.393Z,29.61
2022-08-05T10:04:55.170Z,29.61
2022-08-05T10:08:37.597Z,29.61
2022-08-05T10:11:31.347Z,29.35
2022-08-05T10:14:42.914Z,29.30
2022-08-05T10:17:56.538Z,29.38
2022-08-05T10:21:06.161Z,29.41
2022-08-05T10:24:12.518Z,29.39
2022-08-05T10:27:20.222Z,29.60
2022-08-05T10:31:20.957Z,29.71
2022-08-05T10:33:35.385Z,30.10
2022-08-05T10:36:41.730Z,30.36
2022-08-05T10:40:03.845Z,30.56
2022-08-05T10:42:56.621Z,30.80
2022-08-05T10:46:14.186Z,30.76
2022-08-05T10:49:27.441Z,30.60
2022-08-05T10:52:29.018Z,30.32
2022-08-05T10:56:04.621Z,30.24
2022-08-05T10:58:48.529Z,30.10
2022-08-05T11:02:05.148Z,30.02
2022-08-05T11:05:03.593Z,30.01
2022-08-05T11:08:37.338Z,30.26
2022-08-05T11:11:53.396Z,30.30
2022-08-05T11:15:01.233Z,30.28
2022-08-05T11:18:32.486Z,30.45
2022-08-05T11:21:49.368Z,30.47
2022-08-05T11:25:16.490Z,30.72
2022-08-05T11:28:00.676Z,30.75
2022-08-05T11:31:54.115Z,30.69
2022-08-05T11:34:26.208Z,30.72
2022-08-05T11:38:29.839Z,30.70
2022-08-05T11:41:58.005Z,30.61
2022-08-05T11:44:52.765Z,30.61
2022-08-05T11:47:48.638Z,30.51
2022-08-05T11:50:40.129Z,30.26
2022-08-05T11:53:45.623Z,30.11
2022-08-05T11:57:07.926Z,29.78
2022-08-05T12:00:13.954Z,29.45
2022-08-05T12:03:34.935Z,29.09
2022-08-05T12:06:41.610Z,28.68
2022-08-05T12:09:54.702Z,28.14
2022-08-05T12:13:01.018Z,27.76
2022-08-05T12:16:14.484Z,27.41
2022-08-05T12:20:27.657Z,27.01
2022-08-05T12:22:20.644Z,26.77
2022-08-05T12:25:28.551Z,26.22
2022-08-05T12:28:52.474Z,25.69
2022-08-05T12:32:04.525Z,25.20
2022-08-05T12:35:11.016Z,24.96
2022-08-05T12:38:18.135Z,24.83
2022-08-05T12:41:34.225Z,24.33
2022-08-05T12:44:34.280Z,23.94
2022-08-05T12:48:01.845Z,23.69
2022-08-05T12:50:53.745Z,23.57
2022-08-05T12:54:01.240Z,23.56
2022-08-05T12:57:15.559Z,23.51
2022-08-05T13:01:59.710Z,23.71
2022-08-05T13:03:27.090Z,23.83
2022-08-05T13:06:33.378Z,24.06
2022-08-05T13:09:38.150Z,24.38
2022-08-05T13:12:57.489Z,24.37
2022-08-05T13:15:51.125Z,24.45
2022-08-05T13:19:09.268Z,24.49
2022-08-05T13:22:14.959Z,24.41
2022-08-05T13:25:51.721Z,24.47
2022-08-05T13:28:33.648Z,24.56
2022-08-05T13:32:03.877Z,24.52
2022-08-05T13:34:41.206Z,24.51
2022-08-05T13:37:46.719Z,24.50
2022-08-05T13:40:54.639Z,24.50
2022-08-05T13:44:02.052Z,24.62
2022-08-05T13:47:09.130Z,24.67
2022-08-05T13:50:16.933Z,24.68
2022-08-05T13:53:21.891Z,24.69
2022-08-05T13:56:27.734Z,24.68
2022-08-05T13:59:35.789Z,24.39
2022-08-05T14:02:41.205Z,24.08
2022-08-05T14:06:04.909Z,23.73
2022-08-05T14:08:53.820Z,23.37
2022-08-05T14:12:04.200Z,23.01
2022-08-05T14:16:06.927Z,22.88
2022-08-05T14:18:15.162Z,22.73
2022-08-05T14:22:07.239Z,22.45
2022-08-05T14:24:29.253Z,22.37
2022-08-05T14:27:37.313Z,22.16
2022-08-05T14:30:46.338Z,22.09
2022-08-05T14:34:00.073Z,22.07
2022-08-05T14:36:59.283Z,22.06
2022-08-05T14:40:05.359Z,22.13
2022-08-05T14:43:11.280Z,22.30
2022-08-05T14:46:18.100Z,22.41
2022-08-05T14:49:24.614Z,22.46
2022-08-05T14:52:51.725Z,22.44
2022-08-05T14:55:40.078Z,22.21
2022-08-05T14:58:47.509Z,22.18
2022-08-05T15:01:54.031Z,22.22
2022-08-05T15:05:00.234Z,22.11
2022-08-05T15:08:12.274Z,22.17
2022-08-05T15:11:14.542Z,22.17
2022-08-05T15:14:35.034Z,22.00
2022-08-05T15:17:45.602Z,21.99
2022-08-05T15:20:36.220Z,21.98
2022-08-05T15:23:42.575Z,22.10
2022-08-05T15:26:48.691Z,22.24
2022-08-05T15:29:56.586Z,22.31
2022-08-05T15:33:02.431Z,22.44
2022-08-05T15:36:17.578Z,22.47
2022-08-05T15:41:01.991Z,22.54
2022-08-05T15:42:50.388Z,22.35
2022-08-05T15:45:38.902Z,22.35
2022-08-05T15:48:39.702Z,22.36
2022-08-05T15:52:09.909Z,22.33
2022-08-05T15:54:54.327Z,22.35
2022-08-05T15:58:03.094Z,22.34
2022-08-05T16:01:17.334Z,22.13
2022-08-05T16:04:18.100Z,22.15
2022-08-05T16:07:23.720Z,22.15
2022-08-05T16:10:29.830Z,22.19
2022-08-05T16:13:36.288Z,22.08
2022-08-05T16:16:43.004Z,22.03
2022-08-05T16:20:04.313Z,22.05
2022-08-05T16:22:59.596Z,21.94
2022-08-05T16:26:09.278Z,21.91
2022-08-05T16:29:09.036Z,22.01
2022-08-05T16:32:15.494Z,21.88
2022-08-05T16:35:27.949Z,22.05
2022-08-05T16:38:29.278Z,22.18
2022-08-05T16:42:14.114Z,22.24
2022-08-05T16:44:44.278Z,22.24
2022-08-05T16:47:53.641Z,22.16
2022-08-05T16:50:56.904Z,22.19
2022-08-05T16:54:17.499Z,22.19
2022-08-05T16:57:22.085Z,22.10
2022-08-05T17:00:25.928Z,22.08
2022-08-05T17:03:25.929Z,22.04
2022-08-05T17:06:32.596Z,21.93
2022-08-05T17:09:57.844Z,21.72
2022-08-05T17:12:50.625Z,21.71
2022-08-05T17:15:55.625Z,21.57
2022-08-05T17:18:59.312Z,21.48
2022-08-05T17:22:06.183Z,21.42
2022-08-05T17:25:33.974Z,21.39
2022-08-05T17:28:21.280Z,21.32
2022-08-05T17:31:24.795Z,21.23
2022-08-05T17:34:32.691Z,21.29
2022-08-05T17:37:45.417Z,21.18
2022-08-05T17:40:47.604Z,21.10
2022-08-05T17:43:53.211Z,21.24
2022-08-05T17:46:42.405Z,21.15
2022-08-05T17:49:52.162Z,21.05
2022-08-05T17:52:57.616Z,20.96
2022-08-05T17:56:05.099Z,21.01
2022-08-05T17:59:11.976Z,21.05
2022-08-05T18:02:19.088Z,21.06
2022-08-05T18:05:24.229Z,20.92
2022-08-05T18:08:31.525Z,20.88
2022-08-05T18:11:38.923Z,20.74
2022-08-05T18:14:45.482Z,20.68
2022-08-05T18:18:00.797Z,20.75
2022-08-05T18:21:00.339Z,20.61
2022-08-05T18:24:07.782Z,20.57
2022-08-05T18:27:18.620Z,20.53
2022-08-05T18:30:09.169Z,20.43
2022-08-05T18:33:15.743Z,20.45
2022-08-05T18:36:27.840Z,20.36
2022-08-05T18:40:18.882Z,20.38
2022-08-05T18:42:37.374Z,20.38
2022-08-05T18:45:43.566Z,20.34
2022-08-05T18:48:46.042Z,20.40
2022-08-05T18:52:11.748Z,20.35
2022-08-05T18:55:19.410Z,20.39
2022-08-05T18:58:28.624Z,20.31
2022-08-05T19:01:47.939Z,20.28
2022-08-05T19:05:01.639Z,20.28
2022-08-05T19:07:48.390Z,20.41
2022-08-05T19:10:49.177Z,20.24
2022-08-05T19:13:35.977Z,20.27
2022-08-05T19:16:33.050Z,20.28
2022-08-05T19:19:36.292Z,20.28
2022-08-05T19:22:43.017Z,20.33
2022-08-05T19:25:49.458Z,20.34
2022-08-05T19:28:56.259Z,20.32
2022-08-05T19:32:02.217Z,20.18
2022-08-05T19:35:12.164Z,20.08
2022-08-05T19:38:24.445Z,20.16
2022-08-05T19:41:22.035Z,20.13
2022-08-05T19:44:13.106Z,20.14
2022-08-05T19:47:03.649Z,20.20
2022-08-05T19:49:49.892Z,20.22
2022-08-05T19:52:43.602Z,19.99
2022-08-05T19:56:13.643Z,20.05
2022-08-05T19:58:54.107Z,19.98
2022-08-05T20:01:58.947Z,19.97
2022-08-05T20:05:09.636Z,19.95
2022-08-05T20:08:14.187Z,19.87
2022-08-05T20:11:20.048Z,19.82
2022-08-05T20:14:27.338Z,19.85
2022-08-05T20:17:32.588Z,19.76
2022-08-05T20:20:40.681Z,19.75
2022-08-05T20:23:51.652Z,19.77
2022-08-05T20:26:54.352Z,19.79
2022-08-05T20:30:02.264Z,19.77
2022-08-05T20:33:08.125Z,19.77
2022-08-05T20:36:14.298Z,19.83
2022-08-05T20:39:20.285Z,19.85
2022-08-05T20:42:29.354Z,19.80
2022-08-05T20:45:47.679Z,19.80
2022-08-05T20:48:42.809Z,19.81
2022-08-05T20:51:53.379Z,19.83
2022-08-05T20:55:54.294Z,19.73
2022-08-05T20:58:03.889Z,19.69
2022-08-05T21:01:09.673Z,19.70
2022-08-05T21:04:18.320Z,19.59
2022-08-05T21:07:23.996Z,19.51
2022-08-05T21:10:32.040Z,19.47
2022-08-05T21:13:55.904Z,19.41
2022-08-05T21:16:46.887Z,19.42
2022-08-05T21:19:52.931Z,19.37
2022-08-05T21:23:00.190Z,19.33
2022-08-05T21:26:12.476Z,19.34
2022-08-05T21:29:16.781Z,19.33
2022-08-05T21:32:22.289Z,19.30
2022-08-05T21:35:43.553Z,19.31
2022-08-05T21:38:40.122Z,19.21
2022-08-05T21:41:42.915Z,19.20
2022-08-05T21:44:50.146Z,19.18
2022-08-05T21:47:58.173Z,19.30
2022-08-05T21:51:04.606Z,19.24
2022-08-05T21:54:12.811Z,19.14
2022-08-05T21:57:33.731Z,19.10
2022-08-05T22:00:27.311Z,19.20
2022-08-05T22:03:52.167Z,19.14
2022-08-05T22:06:40.749Z,19.15
2022-08-05T22:09:46.539Z,19.19
2022-08-05T22:12:53.843Z,19.23
2022-08-05T22:16:04.890Z,19.22
2022-08-05T22:20:01.265Z,19.24
2022-08-05T22:22:13.093Z,19.27
2022-08-05T22:26:09.938Z,19.18
2022-08-05T22:28:44.570Z,19.21
2022-08-05T22:31:55.154Z,19.27
2022-08-05T22:34:58.851Z,19.07
2022-08-05T22:38:05.351Z,18.99
2022-08-05T22:41:09.510Z,19.01
2022-08-05T22:44:13.041Z,18.99
2022-08-05T22:47:12.335Z,19.04
2022-08-05T22:50:23.534Z,19.14
2022-08-05T22:53:25.525Z,19.05
2022-08-05T22:56:33.294Z,19.00
2022-08-05T22:59:44.066Z,19.03
2022-08-05T23:02:47.494Z,19.03
2022-08-05T23:05:46.636Z,19.13
2022-08-05T23:08:38.615Z,19.18
2022-08-05T23:11:46.627Z,19.18
2022-08-05T23:14:51.315Z,19.19
2022-08-05T23:18:00.737Z,19.29
2022-08-05T23:21:04.512Z,19.32
2022-08-05T23:24:11.419Z,19.34
2022-08-05T23:27:17.889Z,19.34
2022-08-05T23:30:18.962Z,19.27
2022-08-05T23:34:03.190Z,19.40
2022-08-05T23:36:40.197Z,19.37
2022-08-05T23:39:53.619Z,19.35
2022-08-05T23:42:47.470Z,19.48
2022-08-05T23:45:53.115Z,19.44
2022-08-05T23:48:59.943Z,19.43
2022-08-05T23:52:25.481Z,19.55
2022-08-05T23:55:31.202Z,19.51
2022-08-05T23:58:36.554Z,19.55
